Detailed System and Site Information

System Data Health
Measure Timestamp Ago Health
Web Server Live 12:16:12, 20th October 2014 0 s health
Last live-data upload from local system (nw3) 12:16:12, 20th October 2014 0 s health
Last upload of secondary data 12:00:33, 20th October 2014 16 mins health
Latest Webcam upload 12:16:07, 20th October 2014 5 s health
Last upload of 24hr data log 12:14:08, 20th October 2014 2 mins health
Last full data process 12:15:02, 20th October 2014 70 s health
Last data downtime (>15 mins) 22:16:01, 9th September 2014 41 days
Local System and Site Information
Measure Value
WD Version & Build # 10.37R - 40
WD Start Time 12:54 01/10/14
WD Data Count 569863
WD Memory Use 73,568 K
--- ---
Windows Uptime 18 Days 23 Hours 8 Minutes 6 Seconds
Free System Memory 2534 MB (Max: 4GB)
--- ---
Station Altitude 57 m (187 ft)
Station Latitude 51.556
Station Longitude -0.154
Machine Room Conditions
Measure Value
Temperature 20.5 °C
Temperature Trend +0.0 °C /hr
Relative Humidity 56%
Dew Point 11.4 °C
--- ---
Tmin Today 13.2 °C at 07:39
Tmax Today 21.7 °C at 00:02
Hmin Today 55% at 11:08
Hmax Today 84% at 07:39
Tmin Yesterday 21.3 °C at 06:51
Tmax Yesterday 22.0 °C at 15:55

Site owner and administrator: Ben Lee-Rodgers (2010 - present)

Last 10hrs Temp/Hum for Secondary Sensor and Indoors

Extra Sensors/Indoor

Other

Raw METAR from EGLL (Heathrow)

EGLL 201050Z 24012KT 9999 SCT024 16/10 Q1017
Decode Instructions
Source

WD Screenshot

not available